Time;durP1;ratioP1;P1;durP2;ratioP2;P2;SDS_P1;SDS_P2;PMS_P1;PMS_P2;Temp;Humidity;BMP_temperature;BMP_pressure;BME280_temperature;BME280_humidity;BME280_pressure;Samples;Min_cycle;Max_cycle;Signal;HPM_P1;HPM_P2
2022/02/14 00:01:16;;;;;;;10.70;3.90;;;;;;;3.90;100.00;97263.34;4932929;29;20114;-77
2022/02/14 00:03:43;;;;;;;10.40;3.47;;;;;;;4.03;100.00;97260.00;4933637;29;20497;-79
2022/02/14 00:06:09;;;;;;;11.95;3.58;;;;;;;4.05;100.00;97263.97;4932613;29;20051;-78
2022/02/14 00:08:36;;;;;;;9.23;3.20;;;;;;;4.02;100.00;97258.41;4932938;29;20066;-77
2022/02/14 00:11:02;;;;;;;6.57;3.05;;;;;;;3.98;100.00;97246.66;4934289;29;20079;-78
2022/02/14 00:13:30;;;;;;;10.07;3.17;;;;;;;3.82;100.00;97258.59;4934184;29;20043;-77
2022/02/14 00:15:57;;;;;;;11.68;3.63;;;;;;;3.78;100.00;97255.66;4934300;29;20065;-76
2022/02/14 00:18:23;;;;;;;8.55;3.55;;;;;;;3.69;100.00;97260.81;4933659;29;20047;-78
2022/02/14 00:20:50;;;;;;;8.57;3.35;;;;;;;3.56;100.00;97256.09;4934979;29;20075;-80
2022/02/14 00:23:16;;;;;;;6.47;3.08;;;;;;;3.54;100.00;97249.41;4936183;29;20044;-79
2022/02/14 00:25:43;;;;;;;7.95;3.30;;;;;;;3.49;100.00;97255.63;4934007;29;20194;-78
2022/02/14 00:28:09;;;;;;;10.27;3.15;;;;;;;3.42;100.00;97257.81;4934273;29;20127;-79
2022/02/14 00:30:36;;;;;;;9.25;3.53;;;;;;;3.34;100.00;97254.91;4933116;29;20059;-78
2022/02/14 00:33:02;;;;;;;8.60;3.53;;;;;;;3.38;100.00;97247.94;4932196;29;20048;-77
2022/02/14 00:35:29;;;;;;;6.97;3.08;;;;;;;3.28;100.00;97242.66;4933396;29;20052;-77
2022/02/14 00:37:55;;;;;;;7.10;3.30;;;;;;;3.28;100.00;97240.00;4936416;29;20055;-77
2022/02/14 00:40:22;;;;;;;9.23;3.05;;;;;;;3.28;100.00;97232.75;4932618;29;20602;-77
2022/02/14 00:42:49;;;;;;;10.30;3.67;;;;;;;3.28;100.00;97234.66;4934853;29;20059;-77
2022/02/14 00:45:16;;;;;;;6.35;3.28;;;;;;;3.25;100.00;97244.03;4934625;29;20059;-78
2022/02/14 00:47:42;;;;;;;10.20;3.08;;;;;;;3.31;100.00;97221.50;4933180;29;20062;-77
2022/02/14 00:50:11;;;;;;;8.40;3.70;;;;;;;3.34;100.00;97237.00;4931783;29;20102;-76
2022/02/14 00:52:40;;;;;;;7.60;2.78;;;;;;;3.25;100.00;97241.34;4932046;29;20394;-77
2022/02/14 00:55:09;;;;;;;8.07;3.47;;;;;;;3.23;100.00;97237.34;4933223;29;20377;-77
2022/02/14 00:57:36;;;;;;;9.02;2.90;;;;;;;3.19;100.00;97234.44;4932492;29;20910;-78
2022/02/14 01:00:06;;;;;;;6.57;2.72;;;;;;;3.26;100.00;97242.94;4934110;28;20056;-77
2022/02/14 01:02:32;;;;;;;7.65;3.38;;;;;;;3.34;100.00;97241.53;4951666;28;20055;-77
2022/02/14 01:04:59;;;;;;;8.63;2.90;;;;;;;3.28;100.00;97227.41;4951402;28;20723;-78
2022/02/14 01:07:26;;;;;;;7.43;3.10;;;;;;;3.34;100.00;97234.31;4953325;28;20531;-78
2022/02/14 01:09:52;;;;;;;6.65;2.88;;;;;;;3.35;100.00;97224.44;4952111;28;20051;-77
2022/02/14 01:12:19;;;;;;;9.57;3.40;;;;;;;3.45;100.00;97237.72;4953364;28;20086;-77
2022/02/14 01:14:46;;;;;;;7.10;2.55;;;;;;;3.47;100.00;97220.31;4952967;28;20098;-78
2022/02/14 01:17:12;;;;;;;9.18;2.53;;;;;;;3.53;100.00;97226.44;4959828;28;20055;-78
2022/02/14 01:19:39;;;;;;;11.35;2.70;;;;;;;3.47;100.00;97209.63;4964540;28;20062;-78
2022/02/14 01:22:06;;;;;;;9.05;2.97;;;;;;;3.49;100.00;97212.81;4957966;28;20052;-78
2022/02/14 01:24:32;;;;;;;7.15;2.55;;;;;;;3.66;100.00;97207.06;4953323;29;20641;-78
2022/02/14 01:26:59;;;;;;;7.55;2.90;;;;;;;3.58;100.00;97200.44;4952340;29;20051;-77
2022/02/14 01:29:25;;;;;;;8.38;2.72;;;;;;;3.60;100.00;97198.28;4952043;28;20114;-78
2022/02/14 01:31:54;;;;;;;6.90;2.75;;;;;;;3.62;100.00;97200.66;4950472;29;20066;-80
2022/02/14 01:34:24;;;;;;;9.85;2.70;;;;;;;3.56;100.00;97201.78;4951787;29;20047;-77
2022/02/14 01:36:50;;;;;;;5.53;2.20;;;;;;;3.68;100.00;97192.31;4952553;29;20543;-76
2022/02/14 01:39:19;;;;;;;6.68;2.35;;;;;;;3.97;99.45;97188.84;4952332;29;20107;-77
2022/02/14 01:41:48;;;;;;;4.28;1.90;;;;;;;4.13;94.96;97174.22;4938537;28;20060;-77
2022/02/14 01:44:52;;;;;;;6.20;1.88;;;;;;;4.32;88.50;97175.84;4949030;29;20061;-76
2022/02/14 01:47:21;;;;;;;5.00;1.75;;;;;;;4.58;81.99;97178.22;4892362;29;20087;-77
2022/02/14 01:49:49;;;;;;;6.13;1.60;;;;;;;4.73;76.88;97188.75;4938415;29;20417;-77
2022/02/14 01:52:17;;;;;;;4.82;1.52;;;;;;;4.89;74.12;97176.72;4951006;28;20058;-76
2022/02/14 01:54:47;;;;;;;6.70;1.65;;;;;;;5.10;70.95;97180.72;4951741;28;20433;-78
2022/02/14 01:57:14;;;;;;;7.70;1.70;;;;;;;5.21;68.21;97174.13;4952600;28;20425;-78
2022/02/14 01:59:43;;;;;;;5.15;1.45;;;;;;;5.36;67.17;97173.09;4953683;28;20059;-76
2022/02/14 02:02:10;;;;;;;6.10;1.90;;;;;;;5.39;67.15;97173.31;4953546;28;20110;-79
2022/02/14 02:04:37;;;;;;;5.10;1.80;;;;;;;5.46;65.63;97179.09;4950475;28;20048;-76
2022/02/14 02:07:04;;;;;;;6.18;1.73;;;;;;;5.41;65.68;97171.13;4951189;28;20047;-76
2022/02/14 02:09:31;;;;;;;4.43;1.70;;;;;;;5.48;64.63;97158.13;4963795;29;20061;-77
2022/02/14 02:14:44;;;;;;;5.20;1.77;;;;;;;5.51;64.45;97156.75;4952216;29;20043;-77
2022/02/14 02:17:11;;;;;;;6.53;1.80;;;;;;;5.56;63.58;97146.72;4952991;28;20055;-77
2022/02/14 02:19:37;;;;;;;4.63;1.50;;;;;;;5.51;63.37;97146.81;4952083;28;20492;-76
2022/02/14 02:22:04;;;;;;;5.47;1.52;;;;;;;5.49;63.98;97137.44;4953847;28;20106;-77
2022/02/14 02:24:40;;;;;;;5.15;1.33;;;;;;;5.49;63.25;97146.31;4953371;28;20138;-77
2022/02/14 02:27:07;;;;;;;4.15;1.70;;;;;;;5.44;63.20;97143.72;4952553;29;20059;-77
2022/02/14 02:29:38;;;;;;;3.40;1.80;;;;;;;5.45;62.96;97139.91;4955051;28;20074;-78
2022/02/14 02:32:06;;;;;;;4.68;1.73;;;;;;;5.50;63.25;97147.06;4957656;28;20047;-78
2022/02/14 02:34:38;;;;;;;7.50;1.42;;;;;;;5.55;63.08;97137.06;4953464;28;20657;-78
2022/02/14 02:37:07;;;;;;;4.70;1.65;;;;;;;5.55;62.42;97130.88;4951926;28;20055;-78
2022/02/14 02:39:35;;;;;;;4.22;1.52;;;;;;;5.69;61.08;97129.03;4951030;28;20098;-77
2022/02/14 02:42:04;;;;;;;4.13;1.60;;;;;;;5.81;60.30;97128.59;4950987;28;20682;-78
2022/02/14 02:44:35;;;;;;;5.30;1.60;;;;;;;5.77;60.82;97124.88;4950903;28;20055;-77
2022/02/14 02:47:05;;;;;;;4.90;1.67;;;;;;;5.79;60.39;97131.53;4951363;29;20055;-79
2022/02/14 02:49:32;;;;;;;3.38;1.60;;;;;;;5.79;60.88;97112.75;4955963;28;20051;-78
2022/02/14 02:52:00;;;;;;;4.85;1.60;;;;;;;5.81;60.24;97115.91;4958838;28;20059;-78
2022/02/14 02:54:27;;;;;;;3.97;1.58;;;;;;;5.83;60.50;97118.31;4951344;28;20134;-76
2022/02/14 02:56:55;;;;;;;5.40;1.77;;;;;;;5.73;61.00;97102.41;4950976;28;20120;-78
2022/02/14 02:59:25;;;;;;;6.90;1.90;;;;;;;5.86;60.06;97101.66;4953432;28;20102;-78
2022/02/14 03:01:52;;;;;;;5.25;1.80;;;;;;;5.92;59.64;97098.56;4960471;29;20130;-77
2022/02/14 03:04:19;;;;;;;6.88;1.90;;;;;;;5.94;58.68;97096.38;4965494;28;20051;-76
2022/02/14 03:06:47;;;;;;;5.50;1.65;;;;;;;5.99;58.42;97090.09;4966006;28;20063;-77
2022/02/14 03:09:14;;;;;;;6.03;1.67;;;;;;;6.08;58.33;97089.13;4955769;28;20607;-78
2022/02/14 03:11:44;;;;;;;5.82;1.70;;;;;;;6.12;57.45;97084.72;4958143;29;20047;-80
2022/02/14 03:14:12;;;;;;;3.15;1.40;;;;;;;6.07;58.59;97090.22;4954546;28;20559;-79
2022/02/14 03:16:39;;;;;;;6.75;1.85;;;;;;;5.98;58.40;97083.16;4954693;28;20051;-78
2022/02/14 03:19:06;;;;;;;4.63;1.70;;;;;;;5.99;57.53;97079.34;4952519;29;20055;-78
2022/02/14 03:21:34;;;;;;;9.18;1.70;;;;;;;6.03;57.80;97081.16;4952502;28;20055;-76
2022/02/14 03:24:01;;;;;;;6.55;1.60;;;;;;;6.10;57.91;97076.19;4952845;28;20078;-75
2022/02/14 03:26:28;;;;;;;6.57;1.65;;;;;;;6.11;57.34;97072.41;4953249;28;20047;-78
2022/02/14 03:28:57;;;;;;;4.70;1.88;;;;;;;6.10;57.39;97061.94;4951883;28;20059;-79
2022/02/14 03:31:24;;;;;;;5.78;1.60;;;;;;;6.10;57.42;97065.44;4952035;28;20633;-77
2022/02/14 03:33:52;;;;;;;6.32;1.70;;;;;;;6.06;58.15;97055.59;4952139;28;20066;-77
2022/02/14 03:36:21;;;;;;;4.40;1.55;;;;;;;6.13;57.82;97053.28;4952581;28;20067;-77
2022/02/14 03:38:48;;;;;;;5.53;1.70;;;;;;;6.08;58.02;97061.44;4951924;28;20512;-78
2022/02/14 03:41:14;;;;;;;4.85;1.70;;;;;;;6.01;58.31;97058.38;4953158;29;20090;-77
2022/02/14 03:43:41;;;;;;;6.35;1.67;;;;;;;5.96;58.43;97039.69;4951835;28;20055;-79
2022/02/14 03:46:08;;;;;;;6.95;1.80;;;;;;;5.92;58.81;97050.22;4952442;28;20696;-77
2022/02/14 03:48:35;;;;;;;4.38;1.73;;;;;;;5.95;58.41;97043.44;4952043;28;20110;-77
2022/02/14 03:51:01;;;;;;;7.93;1.63;;;;;;;5.91;59.30;97045.16;4951895;28;20055;-78
2022/02/14 03:53:28;;;;;;;8.05;1.80;;;;;;;5.86;59.57;97032.59;4950986;29;20472;-77
2022/02/14 03:55:56;;;;;;;4.45;1.55;;;;;;;5.81;59.50;97045.31;4952968;29;20055;-78
2022/02/14 03:58:23;;;;;;;3.53;1.50;;;;;;;5.83;59.54;97035.06;4951614;28;20609;-78
2022/02/14 04:00:50;;;;;;;4.38;1.65;;;;;;;5.76;59.93;97035.44;4952082;28;20055;-75
2022/02/14 04:03:16;;;;;;;5.40;1.80;;;;;;;5.74;59.84;97028.78;4951538;28;20054;-77
2022/02/14 04:05:43;;;;;;;5.05;1.70;;;;;;;5.65;60.24;97018.75;4948958;28;20051;-78
2022/02/14 04:08:09;;;;;;;5.75;1.63;;;;;;;5.84;59.89;97028.59;4950992;28;20184;-77
2022/02/14 04:10:36;;;;;;;3.92;1.67;;;;;;;5.80;59.62;97033.78;4950968;29;20122;-77
2022/02/14 04:13:02;;;;;;;4.53;1.88;;;;;;;5.72;60.48;97029.09;4951426;28;20456;-77
2022/02/14 04:15:29;;;;;;;5.18;1.98;;;;;;;5.69;60.83;97024.31;4951189;28;20079;-77
2022/02/14 04:17:56;;;;;;;4.97;2.00;;;;;;;5.72;60.69;97015.69;4951504;28;20567;-77
2022/02/14 04:20:23;;;;;;;6.97;1.88;;;;;;;5.73;60.65;97021.84;4950358;29;20412;-79
2022/02/14 04:22:50;;;;;;;2.72;1.50;;;;;;;5.82;59.47;97020.84;4952153;28;20089;-76
2022/02/14 04:25:17;;;;;;;6.50;1.88;;;;;;;5.79;60.25;97021.44;4951707;28;20082;-76
2022/02/14 04:27:44;;;;;;;6.55;2.08;;;;;;;5.83;60.26;97025.13;4951627;28;20055;-77
2022/02/14 04:30:13;;;;;;;6.68;1.70;;;;;;;5.85;59.96;97025.66;4951383;28;20051;-77
2022/02/14 04:32:40;;;;;;;9.40;2.08;;;;;;;5.81;60.07;97015.78;4951036;28;20114;-78
2022/02/14 04:35:08;;;;;;;7.13;1.95;;;;;;;5.79;59.82;97015.25;4952075;29;20110;-79
2022/02/14 04:37:34;;;;;;;6.82;2.10;;;;;;;5.89;59.66;96997.09;4950972;29;20118;-78
2022/02/14 04:40:01;;;;;;;4.30;1.52;;;;;;;5.74;60.30;96994.69;4952335;28;20396;-78
2022/02/14 04:42:27;;;;;;;6.15;1.77;;;;;;;5.76;59.82;96991.69;4951517;28;20055;-78
2022/02/14 04:44:54;;;;;;;7.72;1.90;;;;;;;5.86;59.85;96986.16;4951866;28;20082;-77
2022/02/14 04:47:20;;;;;;;9.60;2.20;;;;;;;5.84;60.13;96975.69;4951337;28;20118;-78
2022/02/14 04:49:47;;;;;;;4.30;1.80;;;;;;;5.86;59.31;96975.41;4952055;28;20055;-76
2022/02/14 04:52:13;;;;;;;5.28;1.80;;;;;;;5.95;59.35;96974.41;4951045;28;20414;-77
2022/02/14 04:54:40;;;;;;;7.70;2.03;;;;;;;5.94;58.60;96959.38;4951548;28;20055;-78
2022/02/14 04:57:07;;;;;;;7.85;2.03;;;;;;;6.01;58.36;96973.19;4951810;28;20114;-78
2022/02/14 04:59:33;;;;;;;7.95;2.10;;;;;;;6.03;59.44;96960.28;4950447;28;20428;-79
2022/02/14 05:02:00;;;;;;;12.20;2.15;;;;;;;5.97;59.07;96966.84;4950714;28;20468;-78
2022/02/14 05:04:28;;;;;;;5.90;1.90;;;;;;;5.94;58.88;96954.00;4948136;28;20079;-78
2022/02/14 05:06:55;;;;;;;5.53;1.88;;;;;;;5.96;58.82;96967.16;4950914;28;20047;-79
2022/02/14 05:09:21;;;;;;;5.40;1.95;;;;;;;5.98;58.78;96954.19;4951914;28;20519;-78
2022/02/14 05:11:48;;;;;;;6.55;2.13;;;;;;;5.93;58.87;96947.06;4951271;29;20058;-76
2022/02/14 05:14:15;;;;;;;5.80;2.05;;;;;;;5.80;59.57;96945.16;4951834;28;20105;-78
2022/02/14 05:16:41;;;;;;;10.02;2.95;;;;;;;5.94;58.69;96951.31;4951177;28;20150;-78
2022/02/14 05:19:08;;;;;;;8.05;2.00;;;;;;;5.91;58.94;96943.09;4951171;28;20114;-78
2022/02/14 05:21:35;;;;;;;8.23;2.00;;;;;;;6.01;58.43;96940.94;4950970;28;20051;-78
2022/02/14 05:24:02;;;;;;;5.95;2.05;;;;;;;5.97;59.15;96950.72;4951217;28;20059;-78
2022/02/14 05:26:29;;;;;;;6.40;1.70;;;;;;;5.93;58.39;96947.06;4950403;29;20098;-79
2022/02/14 05:28:55;;;;;;;8.00;2.15;;;;;;;6.01;58.53;96956.28;4951041;28;20357;-80
2022/02/14 05:31:26;;;;;;;5.13;1.73;;;;;;;5.95;59.18;96947.53;4965505;28;20063;-80
2022/02/14 05:33:53;;;;;;;8.30;2.00;;;;;;;6.10;58.32;96941.03;4969584;28;20083;-82
2022/02/14 05:36:20;;;;;;;6.15;1.90;;;;;;;6.05;58.15;96941.16;4949910;29;20047;-78
2022/02/14 05:38:46;;;;;;;9.73;1.77;;;;;;;6.10;57.15;96939.16;4950311;28;20066;-78
2022/02/14 05:41:14;;;;;;;5.10;1.90;;;;;;;6.17;57.32;96936.81;4954612;28;20079;-79
2022/02/14 05:43:41;;;;;;;6.32;2.03;;;;;;;6.26;57.33;96940.41;4956900;28;20062;-78
2022/02/14 05:46:14;;;;;;;5.28;2.20;;;;;;;6.16;56.66;96924.50;4956737;28;20503;-78
2022/02/14 05:48:42;;;;;;;6.00;2.00;;;;;;;6.23;56.70;96935.63;4951057;28;20054;-77
2022/02/14 05:51:10;;;;;;;5.45;1.70;;;;;;;6.23;56.78;96935.63;4951372;28;20047;-78
2022/02/14 05:53:39;;;;;;;6.05;1.75;;;;;;;6.31;56.22;96927.94;4950831;28;20440;-76
2022/02/14 05:56:07;;;;;;;5.25;1.88;;;;;;;6.36;56.67;96936.69;4951358;28;20051;-79
2022/02/14 05:58:39;;;;;;;7.32;1.70;;;;;;;6.33;56.47;96942.66;4942626;28;20058;-78
2022/02/14 06:01:06;;;;;;;5.70;1.50;;;;;;;6.25;55.87;96932.63;4948836;28;20515;-76
2022/02/14 06:03:33;;;;;;;5.18;1.70;;;;;;;6.34;55.76;96924.63;4948125;29;20050;-78
2022/02/14 06:06:00;;;;;;;8.20;1.75;;;;;;;6.35;55.54;96921.63;4947524;28;20079;-79
2022/02/14 06:08:27;;;;;;;2.88;1.30;;;;;;;6.40;54.37;96920.75;4948945;28;20051;-77
2022/02/14 06:10:54;;;;;;;5.05;1.67;;;;;;;6.47;55.16;96927.28;4949737;28;20142;-76
2022/02/14 06:13:21;;;;;;;8.52;2.13;;;;;;;6.51;54.17;96919.38;4949068;28;20324;-78
2022/02/14 06:15:48;;;;;;;4.47;1.75;;;;;;;6.46;54.30;96920.31;4950361;28;20555;-79
2022/02/14 06:18:14;;;;;;;4.50;1.50;;;;;;;6.55;53.84;96902.34;4949223;28;20108;-75
2022/02/14 06:20:41;;;;;;;8.82;1.90;;;;;;;6.62;53.73;96912.66;4935617;28;20505;-79
2022/02/14 06:23:08;;;;;;;5.45;1.60;;;;;;;6.64;53.52;96915.81;4945371;29;20055;-78
2022/02/14 06:25:37;;;;;;;4.65;1.92;;;;;;;6.71;54.12;96913.53;4956728;28;20122;-77
2022/02/14 06:28:05;;;;;;;4.78;1.80;;;;;;;6.68;53.63;96912.25;4965060;28;20167;-76
2022/02/14 06:30:31;;;;;;;7.18;1.90;;;;;;;6.75;53.61;96917.97;4948344;28;20070;-76
2022/02/14 06:32:58;;;;;;;9.00;1.80;;;;;;;6.72;53.57;96912.41;4948400;28;20071;-77
2022/02/14 06:35:24;;;;;;;5.68;1.70;;;;;;;6.70;53.12;96914.63;4949559;28;20089;-76
2022/02/14 06:37:51;;;;;;;8.48;2.10;;;;;;;6.76;53.43;96913.41;4950065;28;20082;-76
2022/02/14 06:40:17;;;;;;;4.97;1.75;;;;;;;6.72;53.08;96907.81;4946830;29;20051;-76
2022/02/14 06:42:48;;;;;;;5.38;1.58;;;;;;;6.70;53.26;96914.63;4938529;29;20122;-78
2022/02/14 06:45:16;;;;;;;7.28;1.67;;;;;;;6.81;53.22;96914.03;4946683;29;20054;-77
2022/02/14 06:47:43;;;;;;;8.43;1.90;;;;;;;6.77;53.29;96920.34;4948725;28;20059;-77
2022/02/14 06:50:11;;;;;;;3.38;1.63;;;;;;;6.80;53.38;96931.28;4949789;28;20058;-78
2022/02/14 06:52:38;;;;;;;6.90;2.08;;;;;;;6.76;53.21;96924.16;4948474;28;20405;-79
2022/02/14 06:55:06;;;;;;;5.13;1.45;;;;;;;6.82;53.02;96931.78;4949674;28;20070;-78
2022/02/14 06:57:33;;;;;;;6.22;1.98;;;;;;;6.85;52.80;96914.22;4948968;28;20051;-78
2022/02/14 06:59:59;;;;;;;6.75;2.10;;;;;;;6.87;52.53;96920.09;4950522;28;20047;-77
2022/02/14 07:02:26;;;;;;;3.70;1.77;;;;;;;6.90;52.12;96924.84;4952156;28;20051;-78
2022/02/14 07:04:58;;;;;;;8.65;1.85;;;;;;;6.96;52.21;96929.00;4944295;29;20567;-77
2022/02/14 07:07:25;;;;;;;6.40;1.80;;;;;;;6.97;52.02;96927.13;4951343;28;20055;-78
2022/02/14 07:09:52;;;;;;;6.00;1.55;;;;;;;7.11;52.30;96923.22;4950848;28;20051;-79
2022/02/14 07:12:18;;;;;;;5.47;1.60;;;;;;;7.13;51.78;96917.53;4953104;28;20451;-78
2022/02/14 07:14:45;;;;;;;4.65;1.85;;;;;;;7.19;51.52;96914.41;4951018;28;20109;-78
2022/02/14 07:17:12;;;;;;;7.13;1.75;;;;;;;7.08;52.25;96921.16;4953081;28;20059;-76
2022/02/14 07:19:42;;;;;;;6.03;2.13;;;;;;;7.27;51.47;96912.84;4951344;28;20062;-76
2022/02/14 07:22:08;;;;;;;8.75;1.92;;;;;;;7.42;51.14;96912.41;4950979;28;20039;-78
2022/02/14 07:24:35;;;;;;;6.97;2.03;;;;;;;7.42;50.80;96907.84;4950741;29;20455;-77
2022/02/14 07:27:01;;;;;;;3.97;1.70;;;;;;;7.48;50.78;96913.88;4948306;29;20114;-77
2022/02/14 07:29:28;;;;;;;6.03;1.80;;;;;;;7.55;50.39;96903.44;4950703;28;20051;-76
2022/02/14 07:31:54;;;;;;;5.85;1.77;;;;;;;7.59;50.27;96909.78;4952631;28;20086;-77
2022/02/14 07:34:22;;;;;;;5.80;1.90;;;;;;;7.76;49.70;96903.63;4952018;28;20094;-78
2022/02/14 07:36:49;;;;;;;4.45;1.60;;;;;;;7.88;49.34;96898.41;4952445;28;20110;-78
2022/02/14 07:39:16;;;;;;;6.00;1.67;;;;;;;7.96;48.73;96890.34;4952024;28;20051;-77
2022/02/14 07:41:42;;;;;;;4.80;1.60;;;;;;;8.12;47.87;96901.47;4953266;28;20063;-77
2022/02/14 07:44:09;;;;;;;6.35;1.70;;;;;;;8.06;47.75;96886.53;4951106;28;20075;-77
2022/02/14 07:46:36;;;;;;;4.70;1.52;;;;;;;8.31;47.49;96893.88;4952032;28;20047;-77
2022/02/14 07:49:02;;;;;;;8.82;1.60;;;;;;;8.31;47.02;96887.72;4952082;29;20110;-77
2022/02/14 07:51:29;;;;;;;5.32;1.80;;;;;;;8.40;47.41;96896.56;4952148;28;20078;-79
2022/02/14 07:53:56;;;;;;;3.97;1.67;;;;;;;8.54;47.62;96900.66;4952110;28;20369;-78
2022/02/14 07:56:22;;;;;;;7.28;1.80;;;;;;;8.57;46.05;96893.84;4952528;28;20098;-79
2022/02/14 07:58:49;;;;;;;5.90;1.48;;;;;;;8.83;46.84;96896.53;4950685;28;20055;-77
2022/02/14 08:01:17;;;;;;;4.00;1.60;;;;;;;8.80;46.05;96884.44;4952738;28;20051;-79
2022/02/14 08:03:44;;;;;;;4.82;1.73;;;;;;;8.98;45.81;96890.59;4952249;28;20052;-78
2022/02/14 08:06:28;;;;;;;3.67;1.50;;;;;;;9.15;45.42;96885.13;4953356;28;20043;-78
2022/02/14 08:08:55;;;;;;;7.45;1.98;;;;;;;9.21;44.94;96886.53;4953718;28;20078;-77
2022/02/14 08:11:21;;;;;;;5.32;1.50;;;;;;;9.14;45.72;96881.63;4953230;28;20134;-77
2022/02/14 08:13:48;;;;;;;4.80;1.42;;;;;;;9.27;45.14;96887.94;4951130;28;20109;-78
2022/02/14 08:16:14;;;;;;;5.53;1.73;;;;;;;9.28;44.54;96886.81;4951044;28;20048;-78
2022/02/14 08:18:41;;;;;;;7.47;1.50;;;;;;;9.40;43.36;96893.13;4954894;28;20055;-77
2022/02/14 08:21:07;;;;;;;4.45;1.38;;;;;;;9.62;43.58;96888.56;4952206;28;20126;-78
2022/02/14 08:23:34;;;;;;;5.47;1.50;;;;;;;9.72;43.21;96888.19;4951916;28;20451;-78
2022/02/14 08:26:00;;;;;;;7.15;1.38;;;;;;;9.87;43.76;96890.31;4953595;28;20055;-78
2022/02/14 08:28:28;;;;;;;3.63;1.40;;;;;;;9.92;43.45;96884.72;4952728;28;20087;-77
2022/02/14 08:30:54;;;;;;;2.83;1.13;;;;;;;10.02;42.60;96882.41;4951609;28;20074;-77
2022/02/14 08:33:21;;;;;;;5.18;1.50;;;;;;;10.13;42.50;96873.94;4952450;28;20559;-77
2022/02/14 08:35:49;;;;;;;7.57;1.70;;;;;;;10.30;42.53;96857.56;4951277;28;20073;-77
2022/02/14 08:38:16;;;;;;;5.80;1.67;;;;;;;10.24;42.36;96854.28;4950864;28;20051;-77
2022/02/14 08:40:42;;;;;;;6.30;1.73;;;;;;;10.39;41.98;96853.69;4952083;28;20063;-78
2022/02/14 08:43:09;;;;;;;3.95;1.40;;;;;;;10.51;41.31;96840.19;4953728;28;20055;-79
2022/02/14 08:45:56;;;;;;;4.55;1.40;;;;;;;10.54;41.63;96842.22;4952821;28;20078;-78
2022/02/14 08:48:22;;;;;;;5.38;1.40;;;;;;;10.84;40.58;96839.38;4957392;28;20051;-77
2022/02/14 08:50:49;;;;;;;6.00;1.42;;;;;;;11.04;40.24;96839.31;4963236;28;20055;-77
2022/02/14 08:53:17;;;;;;;5.43;1.48;;;;;;;11.60;40.17;96839.53;4958699;28;20105;-76
2022/02/14 08:55:44;;;;;;;3.60;1.30;;;;;;;12.17;38.94;96837.41;4953121;28;20110;-77
2022/02/14 08:58:10;;;;;;;4.75;1.48;;;;;;;12.73;37.70;96831.94;4953036;28;20187;-76
2022/02/14 09:00:37;;;;;;;4.18;1.63;;;;;;;13.62;36.65;96841.19;4953044;28;20086;-78
2022/02/14 09:03:05;;;;;;;4.75;1.50;;;;;;;14.12;35.94;96835.69;4953006;28;20443;-76
2022/02/14 09:05:32;;;;;;;7.75;1.70;;;;;;;14.97;34.73;96832.72;4951552;29;20127;-77
2022/02/14 09:07:59;;;;;;;5.05;1.33;;;;;;;14.89;34.48;96824.81;4952826;28;20616;-77
2022/02/14 09:10:25;;;;;;;4.40;1.52;;;;;;;14.96;34.15;96830.38;4951845;29;20051;-76
2022/02/14 09:12:52;;;;;;;5.43;1.58;;;;;;;14.59;34.74;96823.81;4941580;28;20114;-78
2022/02/14 09:15:19;;;;;;;3.17;1.40;;;;;;;15.33;33.57;96827.91;4951178;28;20050;-77
2022/02/14 09:17:45;;;;;;;4.03;1.48;;;;;;;15.75;32.92;96819.59;4949938;28;20051;-77
2022/02/14 09:20:12;;;;;;;2.63;1.20;;;;;;;16.13;32.54;96822.84;4951785;28;20483;-78
2022/02/14 09:22:39;;;;;;;5.47;1.63;;;;;;;16.26;32.15;96825.38;4951419;29;20051;-78
2022/02/14 09:25:08;;;;;;;3.63;1.73;;;;;;;16.67;32.23;96816.13;4951878;28;20134;-77
2022/02/14 09:27:34;;;;;;;5.20;1.48;;;;;;;16.21;31.27;96830.00;4951956;28;20062;-78
2022/02/14 09:30:02;;;;;;;3.85;1.30;;;;;;;16.69;31.80;96827.47;4951840;28;20047;-78
2022/02/14 09:32:29;;;;;;;5.90;1.30;;;;;;;16.99;31.63;96832.84;4951079;28;20579;-79
2022/02/14 09:34:55;;;;;;;2.58;1.40;;;;;;;16.79;31.79;96826.81;4951279;28;20484;-78
2022/02/14 09:37:22;;;;;;;4.07;1.30;;;;;;;16.79;31.39;96810.41;4951827;29;20070;-79
2022/02/14 09:39:49;;;;;;;11.98;1.90;;;;;;;17.35;31.68;96821.88;4952085;28;20511;-79
2022/02/14 09:42:16;;;;;;;2.78;1.30;;;;;;;18.18;30.57;96824.00;4952039;28;20055;-78
2022/02/14 09:44:45;;;;;;;6.90;1.42;;;;;;;19.11;30.45;96830.25;4953198;28;20059;-76
2022/02/14 09:47:11;;;;;;;4.88;1.80;;;;;;;18.89;30.85;96822.38;4958382;28;20062;-75
2022/02/14 09:49:41;;;;;;;5.50;1.50;;;;;;;19.00;30.15;96791.03;4958934;28;20051;-77
2022/02/14 09:52:08;;;;;;;3.53;1.50;;;;;;;18.96;30.14;96814.16;4952161;28;20055;-78
2022/02/14 09:54:35;;;;;;;3.65;1.30;;;;;;;19.82;29.74;96811.81;4952594;29;20085;-78
2022/02/14 09:57:03;;;;;;;8.95;1.55;;;;;;;19.64;28.79;96807.56;4955077;28;20051;-78
2022/02/14 09:59:29;;;;;;;5.97;1.60;;;;;;;20.14;28.88;96824.72;4954965;28;20099;-79
2022/02/14 10:01:56;;;;;;;3.30;1.40;;;;;;;20.51;28.91;96825.03;4955619;28;20047;-78
2022/02/14 10:04:23;;;;;;;6.40;1.75;;;;;;;20.11;28.43;96825.50;4950596;28;20066;-78
2022/02/14 10:06:50;;;;;;;5.28;1.40;;;;;;;19.48;29.12;96820.91;4951984;28;20063;-78
2022/02/14 10:09:20;;;;;;;5.88;1.70;;;;;;;20.68;27.89;96826.13;4954050;28;20115;-78
2022/02/14 10:12:02;;;;;;;5.25;1.88;;;;;;;20.23;27.56;96827.84;4954553;28;20512;-78
2022/02/14 10:14:29;;;;;;;6.72;1.50;;;;;;;20.43;27.81;96821.53;4954001;28;20059;-77
2022/02/14 10:17:00;;;;;;;7.10;1.63;;;;;;;20.18;27.83;96831.75;4953627;28;20066;-78
2022/02/14 10:19:29;;;;;;;6.15;1.60;;;;;;;19.61;27.66;96817.38;4953403;28;20051;-78
2022/02/14 10:21:57;;;;;;;3.75;1.55;;;;;;;19.71;28.16;96824.03;4955753;28;20126;-77
2022/02/14 10:24:24;;;;;;;8.05;1.60;;;;;;;20.46;28.16;96828.19;4954962;28;20086;-78
2022/02/14 10:26:54;;;;;;;4.68;1.58;;;;;;;20.43;28.72;96823.50;4954143;28;20070;-78
2022/02/14 10:29:25;;;;;;;3.53;1.40;;;;;;;21.63;27.81;96820.00;4953138;28;20872;-79
2022/02/14 10:31:59;;;;;;;5.18;1.45;;;;;;;21.31;27.33;96822.25;4934190;29;20151;-78
2022/02/14 10:34:39;;;;;;;4.43;1.45;;;;;;;20.75;28.50;96820.59;4950317;29;20527;-78
2022/02/14 10:37:14;;;;;;;3.45;1.35;;;;;;;22.00;27.48;96820.09;4952975;28;20055;-78
2022/02/14 10:39:43;;;;;;;3.75;1.40;;;;;;;21.46;27.39;96818.97;4952991;28;20047;-80
2022/02/14 10:42:15;;;;;;;3.72;1.38;;;;;;;21.92;27.22;96823.31;4953888;28;20146;-78
2022/02/14 10:47:35;;;;;;;5.05;1.40;;;;;;;22.76;26.16;96819.63;4955449;29;20058;-78
2022/02/14 10:50:13;;;;;;;4.55;1.52;;;;;;;23.03;26.83;96825.19;4952226;29;20133;-78
2022/02/14 10:52:41;;;;;;;;;;;;;;;20.80;28.93;96828.44;4956982;28;20625;-78
2022/02/14 10:55:15;;;;;;;4.13;1.40;;;;;;;21.39;28.36;96815.50;4954377;29;19948;-77
2022/02/14 10:57:44;;;;;;;5.90;1.50;;;;;;;20.26;28.63;96821.59;4952840;28;20047;-77
2022/02/14 11:00:19;;;;;;;4.88;1.63;;;;;;;19.66;29.25;96816.19;4952746;28;20115;-77
2022/02/14 11:02:48;;;;;;;3.95;1.45;;;;;;;21.28;28.92;96818.34;4954507;28;20141;-78
2022/02/14 11:05:16;;;;;;;6.30;1.38;;;;;;;20.82;28.98;96815.84;4953440;28;20055;-77
2022/02/14 11:07:43;;;;;;;6.18;1.90;;;;;;;20.65;28.00;96811.19;4951677;28;20051;-76
2022/02/14 11:10:15;;;;;;;4.47;1.48;;;;;;;21.23;28.67;96826.22;4953299;28;20074;-76
2022/02/14 11:12:54;;;;;;;3.72;1.45;;;;;;;20.25;28.35;96815.31;4953498;28;20128;-75
2022/02/14 11:15:25;;;;;;;4.85;1.77;;;;;;;20.80;28.53;96820.94;4952441;28;20496;-75
2022/02/14 11:18:04;;;;;;;5.15;1.50;;;;;;;22.18;26.79;96826.22;4949243;28;20109;-77
2022/02/14 11:20:36;;;;;;;4.35;1.45;;;;;;;21.78;28.01;96823.44;4953291;29;20432;-77
2022/02/14 11:23:05;;;;;;;6.03;1.58;;;;;;;23.20;26.60;96828.91;4955331;28;20432;-77
2022/02/14 11:25:32;;;;;;;3.60;1.77;;;;;;;25.01;25.57;96822.47;4957014;28;20039;-77
2022/02/14 11:28:16;;;;;;;5.50;1.63;;;;;;;24.65;25.77;96827.97;4956477;28;20093;-76
2022/02/14 11:31:19;;;;;;;3.42;1.45;;;;;;;22.60;25.88;96815.88;4949790;28;20055;-77
2022/02/14 11:33:56;;;;;;;3.78;1.45;;;;;;;23.16;27.67;96823.44;4945592;29;20055;-77
2022/02/14 11:36:27;;;;;;;4.45;1.60;;;;;;;24.52;26.29;96813.19;4947403;28;20051;-78
2022/02/14 11:39:04;;;;;;;3.53;1.52;;;;;;;24.68;26.12;96804.97;4947412;28;20051;-78
2022/02/14 11:41:32;;;;;;;4.00;1.60;;;;;;;25.11;25.49;96815.16;4946740;29;20078;-78
2022/02/14 11:44:20;;;;;;;4.18;1.60;;;;;;;24.17;26.31;96819.44;4949117;28;20047;-78
2022/02/14 11:46:56;;;;;;;4.60;1.30;;;;;;;-141.50;100.00;63355.56;4946225;28;20053;-79
2022/02/14 11:49:41;;;;;;;6.10;1.70;;;;;;;24.35;26.25;96819.09;4958020;28;20051;-79